sensor_id;sensor_type;location;lat;lon;timestamp;P1;P2;P0
26720;PMS1003;15950;51.112;6.966;2023-03-07T00:00:36;015;013;
26720;PMS1003;15950;51.112;6.966;2023-03-07T00:03:36;011;009;
26720;PMS1003;15950;51.112;6.966;2023-03-07T00:06:36;012;010;
26720;PMS1003;15950;51.112;6.966;2023-03-07T00:09:36;008;007;
26720;PMS1003;15950;51.112;6.966;2023-03-07T00:12:36;014;010;
26720;PMS1003;15950;51.112;6.966;2023-03-07T00:15:36;009;009;
26720;PMS1003;15950;51.112;6.966;2023-03-07T00:18:36;010;007;
26720;PMS1003;15950;51.112;6.966;2023-03-07T00:21:36;007;005;
26720;PMS1003;15950;51.112;6.966;2023-03-07T00:24:36;011;008;
26720;PMS1003;15950;51.112;6.966;2023-03-07T00:27:36;012;008;
26720;PMS1003;15950;51.112;6.966;2023-03-07T00:30:36;006;005;
26720;PMS1003;15950;51.112;6.966;2023-03-07T00:33:36;007;005;
26720;PMS1003;15950;51.112;6.966;2023-03-07T00:36:36;004;003;
26720;PMS1003;15950;51.112;6.966;2023-03-07T00:39:36;003;002;
26720;PMS1003;15950;51.112;6.966;2023-03-07T00:42:36;005;004;
26720;PMS1003;15950;51.112;6.966;2023-03-07T00:45:36;006;005;
26720;PMS1003;15950;51.112;6.966;2023-03-07T00:48:36;005;004;
26720;PMS1003;15950;51.112;6.966;2023-03-07T00:51:36;007;005;
26720;PMS1003;15950;51.112;6.966;2023-03-07T00:54:36;006;005;
26720;PMS1003;15950;51.112;6.966;2023-03-07T00:57:36;008;006;
26720;PMS1003;15950;51.112;6.966;2023-03-07T01:00:36;010;009;
26720;PMS1003;15950;51.112;6.966;2023-03-07T01:03:36;004;004;
26720;PMS1003;15950;51.112;6.966;2023-03-07T01:06:36;006;004;
26720;PMS1003;15950;51.112;6.966;2023-03-07T01:09:36;005;003;
26720;PMS1003;15950;51.112;6.966;2023-03-07T01:12:36;006;005;
26720;PMS1003;15950;51.112;6.966;2023-03-07T01:15:36;006;004;
26720;PMS1003;15950;51.112;6.966;2023-03-07T01:18:36;007;005;
26720;PMS1003;15950;51.112;6.966;2023-03-07T01:21:37;005;004;
26720;PMS1003;15950;51.112;6.966;2023-03-07T01:24:36;004;003;
26720;PMS1003;15950;51.112;6.966;2023-03-07T01:27:36;006;004;
26720;PMS1003;15950;51.112;6.966;2023-03-07T01:30:36;006;006;
26720;PMS1003;15950;51.112;6.966;2023-03-07T01:33:36;003;002;
26720;PMS1003;15950;51.112;6.966;2023-03-07T01:36:36;005;003;
26720;PMS1003;15950;51.112;6.966;2023-03-07T01:39:36;007;005;
26720;PMS1003;15950;51.112;6.966;2023-03-07T01:42:36;003;002;
26720;PMS1003;15950;51.112;6.966;2023-03-07T01:48:36;003;002;
26720;PMS1003;15950;51.112;6.966;2023-03-07T01:51:36;005;003;
26720;PMS1003;15950;51.112;6.966;2023-03-07T01:54:40;006;004;
26720;PMS1003;15950;51.112;6.966;2023-03-07T01:57:36;006;005;
26720;PMS1003;15950;51.112;6.966;2023-03-07T02:00:36;006;005;
26720;PMS1003;15950;51.112;6.966;2023-03-07T02:03:36;005;003;
26720;PMS1003;15950;51.112;6.966;2023-03-07T02:06:36;006;004;
26720;PMS1003;15950;51.112;6.966;2023-03-07T02:09:36;002;001;
26720;PMS1003;15950;51.112;6.966;2023-03-07T02:12:36;008;006;
26720;PMS1003;15950;51.112;6.966;2023-03-07T02:15:36;003;002;
26720;PMS1003;15950;51.112;6.966;2023-03-07T02:18:40;006;004;
26720;PMS1003;15950;51.112;6.966;2023-03-07T02:27:36;004;003;
26720;PMS1003;15950;51.112;6.966;2023-03-07T02:30:36;003;002;
26720;PMS1003;15950;51.112;6.966;2023-03-07T02:33:36;003;002;
26720;PMS1003;15950;51.112;6.966;2023-03-07T02:36:36;003;002;
26720;PMS1003;15950;51.112;6.966;2023-03-07T02:39:37;006;004;
26720;PMS1003;15950;51.112;6.966;2023-03-07T02:42:36;007;005;
26720;PMS1003;15950;51.112;6.966;2023-03-07T02:45:36;007;005;
26720;PMS1003;15950;51.112;6.966;2023-03-07T02:48:36;006;004;
26720;PMS1003;15950;51.112;6.966;2023-03-07T02:51:36;007;006;
26720;PMS1003;15950;51.112;6.966;2023-03-07T02:54:36;004;003;
26720;PMS1003;15950;51.112;6.966;2023-03-07T02:57:36;005;004;
26720;PMS1003;15950;51.112;6.966;2023-03-07T03:00:36;006;004;
26720;PMS1003;15950;51.112;6.966;2023-03-07T03:03:36;007;005;
26720;PMS1003;15950;51.112;6.966;2023-03-07T03:06:36;006;004;
26720;PMS1003;15950;51.112;6.966;2023-03-07T03:09:36;006;004;
26720;PMS1003;15950;51.112;6.966;2023-03-07T03:12:36;005;003;
26720;PMS1003;15950;51.112;6.966;2023-03-07T03:15:36;012;008;
26720;PMS1003;15950;51.112;6.966;2023-03-07T03:18:36;007;005;
26720;PMS1003;15950;51.112;6.966;2023-03-07T03:21:36;008;006;
26720;PMS1003;15950;51.112;6.966;2023-03-07T03:24:39;003;002;
26720;PMS1003;15950;51.112;6.966;2023-03-07T03:27:36;003;002;
26720;PMS1003;15950;51.112;6.966;2023-03-07T03:30:36;008;006;
26720;PMS1003;15950;51.112;6.966;2023-03-07T03:33:36;004;003;
26720;PMS1003;15950;51.112;6.966;2023-03-07T03:36:36;005;003;
26720;PMS1003;15950;51.112;6.966;2023-03-07T03:39:36;006;004;
26720;PMS1003;15950;51.112;6.966;2023-03-07T03:42:36;008;006;
26720;PMS1003;15950;51.112;6.966;2023-03-07T03:45:36;004;003;
26720;PMS1003;15950;51.112;6.966;2023-03-07T03:48:36;005;003;
26720;PMS1003;15950;51.112;6.966;2023-03-07T03:51:36;007;005;
26720;PMS1003;15950;51.112;6.966;2023-03-07T03:54:36;007;005;
26720;PMS1003;15950;51.112;6.966;2023-03-07T03:57:36;006;005;
26720;PMS1003;15950;51.112;6.966;2023-03-07T04:00:36;003;002;
26720;PMS1003;15950;51.112;6.966;2023-03-07T04:03:43;007;005;
26720;PMS1003;15950;51.112;6.966;2023-03-07T04:06:36;005;003;
26720;PMS1003;15950;51.112;6.966;2023-03-07T04:09:36;005;003;
26720;PMS1003;15950;51.112;6.966;2023-03-07T04:12:36;003;002;
26720;PMS1003;15950;51.112;6.966;2023-03-07T04:15:36;005;003;
26720;PMS1003;15950;51.112;6.966;2023-03-07T04:18:36;005;003;
26720;PMS1003;15950;51.112;6.966;2023-03-07T04:21:36;004;003;
26720;PMS1003;15950;51.112;6.966;2023-03-07T04:24:36;006;005;
26720;PMS1003;15950;51.112;6.966;2023-03-07T04:27:36;007;005;
26720;PMS1003;15950;51.112;6.966;2023-03-07T04:30:36;005;003;
26720;PMS1003;15950;51.112;6.966;2023-03-07T04:33:36;003;002;
26720;PMS1003;15950;51.112;6.966;2023-03-07T04:36:36;006;004;
26720;PMS1003;15950;51.112;6.966;2023-03-07T04:39:36;007;005;
26720;PMS1003;15950;51.112;6.966;2023-03-07T04:42:36;007;005;
26720;PMS1003;15950;51.112;6.966;2023-03-07T04:45:36;006;004;
26720;PMS1003;15950;51.112;6.966;2023-03-07T04:48:36;008;006;
26720;PMS1003;15950;51.112;6.966;2023-03-07T04:51:36;013;009;
26720;PMS1003;15950;51.112;6.966;2023-03-07T04:54:36;010;007;
26720;PMS1003;15950;51.112;6.966;2023-03-07T04:57:36;007;005;
26720;PMS1003;15950;51.112;6.966;2023-03-07T05:00:36;009;006;
26720;PMS1003;15950;51.112;6.966;2023-03-07T05:03:36;006;005;
26720;PMS1003;15950;51.112;6.966;2023-03-07T05:06:36;009;006;
26720;PMS1003;15950;51.112;6.966;2023-03-07T05:09:36;006;004;
26720;PMS1003;15950;51.112;6.966;2023-03-07T05:12:36;006;004;
26720;PMS1003;15950;51.112;6.966;2023-03-07T05:15:36;006;005;
26720;PMS1003;15950;51.112;6.966;2023-03-07T05:18:36;011;008;
26720;PMS1003;15950;51.112;6.966;2023-03-07T05:21:36;011;009;
26720;PMS1003;15950;51.112;6.966;2023-03-07T05:24:36;013;011;
26720;PMS1003;15950;51.112;6.966;2023-03-07T05:27:36;009;006;
26720;PMS1003;15950;51.112;6.966;2023-03-07T05:30:36;006;005;
26720;PMS1003;15950;51.112;6.966;2023-03-07T05:33:36;011;009;
26720;PMS1003;15950;51.112;6.966;2023-03-07T05:36:36;010;007;
26720;PMS1003;15950;51.112;6.966;2023-03-07T05:39:36;007;005;
26720;PMS1003;15950;51.112;6.966;2023-03-07T05:42:36;006;004;
26720;PMS1003;15950;51.112;6.966;2023-03-07T05:45:36;007;005;
26720;PMS1003;15950;51.112;6.966;2023-03-07T05:48:36;006;005;
26720;PMS1003;15950;51.112;6.966;2023-03-07T05:51:36;010;007;
26720;PMS1003;15950;51.112;6.966;2023-03-07T05:54:36;009;006;
26720;PMS1003;15950;51.112;6.966;2023-03-07T05:57:36;011;009;
26720;PMS1003;15950;51.112;6.966;2023-03-07T06:00:36;009;007;
26720;PMS1003;15950;51.112;6.966;2023-03-07T06:03:36;011;009;
26720;PMS1003;15950;51.112;6.966;2023-03-07T06:06:36;010;008;
26720;PMS1003;15950;51.112;6.966;2023-03-07T06:09:36;010;007;
26720;PMS1003;15950;51.112;6.966;2023-03-07T06:12:36;011;008;
26720;PMS1003;15950;51.112;6.966;2023-03-07T06:15:36;009;006;
26720;PMS1003;15950;51.112;6.966;2023-03-07T06:18:36;010;007;
26720;PMS1003;15950;51.112;6.966;2023-03-07T06:21:36;008;006;
26720;PMS1003;15950;51.112;6.966;2023-03-07T06:24:36;013;010;
26720;PMS1003;15950;51.112;6.966;2023-03-07T06:27:36;013;010;
26720;PMS1003;15950;51.112;6.966;2023-03-07T06:30:36;010;008;
26720;PMS1003;15950;51.112;6.966;2023-03-07T06:33:36;010;007;
26720;PMS1003;15950;51.112;6.966;2023-03-07T06:36:35;009;006;
26720;PMS1003;15950;51.112;6.966;2023-03-07T06:39:35;009;006;
26720;PMS1003;15950;51.112;6.966;2023-03-07T06:42:36;012;008;
26720;PMS1003;15950;51.112;6.966;2023-03-07T06:45:36;014;010;
26720;PMS1003;15950;51.112;6.966;2023-03-07T06:48:35;013;009;
26720;PMS1003;15950;51.112;6.966;2023-03-07T06:51:36;009;008;
26720;PMS1003;15950;51.112;6.966;2023-03-07T06:54:35;010;007;
26720;PMS1003;15950;51.112;6.966;2023-03-07T06:57:35;009;007;
26720;PMS1003;15950;51.112;6.966;2023-03-07T07:00:35;015;011;
26720;PMS1003;15950;51.112;6.966;2023-03-07T07:03:35;014;011;
26720;PMS1003;15950;51.112;6.966;2023-03-07T07:06:35;014;010;
26720;PMS1003;15950;51.112;6.966;2023-03-07T07:09:35;013;009;
26720;PMS1003;15950;51.112;6.966;2023-03-07T07:12:35;011;009;
26720;PMS1003;15950;51.112;6.966;2023-03-07T07:15:35;013;009;
26720;PMS1003;15950;51.112;6.966;2023-03-07T07:18:35;014;010;
26720;PMS1003;15950;51.112;6.966;2023-03-07T07:21:35;011;009;
26720;PMS1003;15950;51.112;6.966;2023-03-07T07:24:36;015;011;
26720;PMS1003;15950;51.112;6.966;2023-03-07T07:27:36;013;009;
26720;PMS1003;15950;51.112;6.966;2023-03-07T07:30:35;017;012;
26720;PMS1003;15950;51.112;6.966;2023-03-07T07:33:35;013;009;
26720;PMS1003;15950;51.112;6.966;2023-03-07T07:36:35;020;014;
26720;PMS1003;15950;51.112;6.966;2023-03-07T07:39:35;015;013;
26720;PMS1003;15950;51.112;6.966;2023-03-07T07:42:35;021;016;
26720;PMS1003;15950;51.112;6.966;2023-03-07T07:45:36;014;010;
26720;PMS1003;15950;51.112;6.966;2023-03-07T07:48:35;010;007;
26720;PMS1003;15950;51.112;6.966;2023-03-07T07:51:35;014;010;
26720;PMS1003;15950;51.112;6.966;2023-03-07T07:54:35;012;008;
26720;PMS1003;15950;51.112;6.966;2023-03-07T07:57:35;014;010;
26720;PMS1003;15950;51.112;6.966;2023-03-07T08:00:35;016;013;
26720;PMS1003;15950;51.112;6.966;2023-03-07T08:03:35;017;012;
26720;PMS1003;15950;51.112;6.966;2023-03-07T08:06:35;010;007;
26720;PMS1003;15950;51.112;6.966;2023-03-07T08:09:35;009;007;
26720;PMS1003;15950;51.112;6.966;2023-03-07T08:12:41;013;010;
26720;PMS1003;15950;51.112;6.966;2023-03-07T08:15:35;014;010;
26720;PMS1003;15950;51.112;6.966;2023-03-07T08:18:35;009;006;
26720;PMS1003;15950;51.112;6.966;2023-03-07T08:21:35;010;007;
26720;PMS1003;15950;51.112;6.966;2023-03-07T08:24:35;010;007;
26720;PMS1003;15950;51.112;6.966;2023-03-07T08:27:35;009;009;
26720;PMS1003;15950;51.112;6.966;2023-03-07T08:30:35;014;010;
26720;PMS1003;15950;51.112;6.966;2023-03-07T08:33:36;010;008;
26720;PMS1003;15950;51.112;6.966;2023-03-07T08:36:36;010;007;
26720;PMS1003;15950;51.112;6.966;2023-03-07T08:39:35;012;008;
26720;PMS1003;15950;51.112;6.966;2023-03-07T08:42:35;010;009;
26720;PMS1003;15950;51.112;6.966;2023-03-07T08:45:36;007;005;
26720;PMS1003;15950;51.112;6.966;2023-03-07T08:48:35;007;005;
26720;PMS1003;15950;51.112;6.966;2023-03-07T08:51:35;015;011;
26720;PMS1003;15950;51.112;6.966;2023-03-07T08:54:35;005;004;
26720;PMS1003;15950;51.112;6.966;2023-03-07T08:57:35;010;007;
26720;PMS1003;15950;51.112;6.966;2023-03-07T09:00:36;009;006;
26720;PMS1003;15950;51.112;6.966;2023-03-07T09:03:35;005;003;
26720;PMS1003;15950;51.112;6.966;2023-03-07T09:06:35;010;007;
26720;PMS1003;15950;51.112;6.966;2023-03-07T09:09:35;010;008;
26720;PMS1003;15950;51.112;6.966;2023-03-07T09:12:35;006;004;
26720;PMS1003;15950;51.112;6.966;2023-03-07T09:15:37;007;005;
26720;PMS1003;15950;51.112;6.966;2023-03-07T09:18:35;007;005;
26720;PMS1003;15950;51.112;6.966;2023-03-07T09:21:35;005;003;
26720;PMS1003;15950;51.112;6.966;2023-03-07T09:24:35;007;005;
26720;PMS1003;15950;51.112;6.966;2023-03-07T09:27:35;007;005;
26720;PMS1003;15950;51.112;6.966;2023-03-07T09:30:36;006;004;
26720;PMS1003;15950;51.112;6.966;2023-03-07T09:33:35;008;006;
26720;PMS1003;15950;51.112;6.966;2023-03-07T09:36:35;007;005;
26720;PMS1003;15950;51.112;6.966;2023-03-07T09:39:35;006;004;
26720;PMS1003;15950;51.112;6.966;2023-03-07T09:51:37;006;005;
26720;PMS1003;15950;51.112;6.966;2023-03-07T09:54:40;005;003;
26720;PMS1003;15950;51.112;6.966;2023-03-07T09:57:57;012;010;
26720;PMS1003;15950;51.112;6.966;2023-03-07T10:00:36;009;008;
26720;PMS1003;15950;51.112;6.966;2023-03-07T10:06:40;007;005;
26720;PMS1003;15950;51.112;6.966;2023-03-07T10:09:35;008;007;
26720;PMS1003;15950;51.112;6.966;2023-03-07T10:27:35;003;002;
26720;PMS1003;15950;51.112;6.966;2023-03-07T10:30:35;006;005;
26720;PMS1003;15950;51.112;6.966;2023-03-07T10:33:35;006;004;
26720;PMS1003;15950;51.112;6.966;2023-03-07T10:39:40;008;007;
26720;PMS1003;15950;51.112;6.966;2023-03-07T10:42:35;003;002;
26720;PMS1003;15950;51.112;6.966;2023-03-07T10:45:35;006;005;
26720;PMS1003;15950;51.112;6.966;2023-03-07T10:48:35;003;003;
26720;PMS1003;15950;51.112;6.966;2023-03-07T10:54:36;000;000;
26720;PMS1003;15950;51.112;6.966;2023-03-07T10:57:35;001;001;
26720;PMS1003;15950;51.112;6.966;2023-03-07T11:00:35;002;001;
26720;PMS1003;15950;51.112;6.966;2023-03-07T11:09:38;000;000;
26720;PMS1003;15950;51.112;6.966;2023-03-07T11:12:35;000;000;
26720;PMS1003;15950;51.112;6.966;2023-03-07T11:15:35;000;000;
26720;PMS1003;15950;51.112;6.966;2023-03-07T11:18:37;000;000;
26720;PMS1003;15950;51.112;6.966;2023-03-07T11:21:35;000;000;
26720;PMS1003;15950;51.112;6.966;2023-03-07T11:24:36;000;000;
26720;PMS1003;15950;51.112;6.966;2023-03-07T11:36:35;000;000;
26720;PMS1003;15950;51.112;6.966;2023-03-07T11:48:42;000;000;
26720;PMS1003;15950;51.112;6.966;2023-03-07T12:06:41;000;000;
26720;PMS1003;15950;51.112;6.966;2023-03-07T12:09:41;000;000;
26720;PMS1003;15950;51.112;6.966;2023-03-07T12:15:39;000;000;
26720;PMS1003;15950;51.112;6.966;2023-03-07T12:27:37;000;000;
26720;PMS1003;15950;51.112;6.966;2023-03-07T12:33:41;000;000;
26720;PMS1003;15950;51.112;6.966;2023-03-07T12:51:36;006;004;
26720;PMS1003;15950;51.112;6.966;2023-03-07T12:54:36;004;003;
26720;PMS1003;15950;51.112;6.966;2023-03-07T12:57:36;002;001;
26720;PMS1003;15950;51.112;6.966;2023-03-07T13:00:36;003;003;
26720;PMS1003;15950;51.112;6.966;2023-03-07T13:06:35;000;000;
26720;PMS1003;15950;51.112;6.966;2023-03-07T13:09:36;000;000;
26720;PMS1003;15950;51.112;6.966;2023-03-07T13:12:35;000;000;
26720;PMS1003;15950;51.112;6.966;2023-03-07T13:15:43;000;000;
26720;PMS1003;15950;51.112;6.966;2023-03-07T13:18:35;000;000;
26720;PMS1003;15950;51.112;6.966;2023-03-07T13:21:35;000;000;
26720;PMS1003;15950;51.112;6.966;2023-03-07T13:24:39;000;000;
26720;PMS1003;15950;51.112;6.966;2023-03-07T13:30:35;002;001;
26720;PMS1003;15950;51.112;6.966;2023-03-07T13:33:35;001;001;
26720;PMS1003;15950;51.112;6.966;2023-03-07T13:36:36;000;000;
26720;PMS1003;15950;51.112;6.966;2023-03-07T13:39:36;000;000;
26720;PMS1003;15950;51.112;6.966;2023-03-07T13:51:35;000;000;
26720;PMS1003;15950;51.112;6.966;2023-03-07T13:54:38;000;000;
26720;PMS1003;15950;51.112;6.966;2023-03-07T13:57:36;000;000;
26720;PMS1003;15950;51.112;6.966;2023-03-07T14:00:36;000;000;
26720;PMS1003;15950;51.112;6.966;2023-03-07T14:03:36;000;000;
26720;PMS1003;15950;51.112;6.966;2023-03-07T14:09:39;000;000;
26720;PMS1003;15950;51.112;6.966;2023-03-07T14:24:38;000;000;
26720;PMS1003;15950;51.112;6.966;2023-03-07T14:30:35;002;002;
26720;PMS1003;15950;51.112;6.966;2023-03-07T14:33:36;000;000;
26720;PMS1003;15950;51.112;6.966;2023-03-07T14:36:35;000;000;
26720;PMS1003;15950;51.112;6.966;2023-03-07T14:45:40;000;000;
26720;PMS1003;15950;51.112;6.966;2023-03-07T14:48:44;000;000;
26720;PMS1003;15950;51.112;6.966;2023-03-07T14:51:37;000;000;
26720;PMS1003;15950;51.112;6.966;2023-03-07T14:54:35;004;003;
26720;PMS1003;15950;51.112;6.966;2023-03-07T14:57:36;000;000;
26720;PMS1003;15950;51.112;6.966;2023-03-07T15:00:35;002;001;
26720;PMS1003;15950;51.112;6.966;2023-03-07T15:03:35;003;003;
26720;PMS1003;15950;51.112;6.966;2023-03-07T15:06:40;001;001;
26720;PMS1003;15950;51.112;6.966;2023-03-07T15:09:35;001;001;
26720;PMS1003;15950;51.112;6.966;2023-03-07T15:12:35;000;000;
26720;PMS1003;15950;51.112;6.966;2023-03-07T15:18:36;003;002;
26720;PMS1003;15950;51.112;6.966;2023-03-07T15:21:39;003;002;
26720;PMS1003;15950;51.112;6.966;2023-03-07T15:24:36;000;000;
26720;PMS1003;15950;51.112;6.966;2023-03-07T15:27:35;003;002;
26720;PMS1003;15950;51.112;6.966;2023-03-07T15:30:36;002;001;
26720;PMS1003;15950;51.112;6.966;2023-03-07T15:33:35;002;001;
26720;PMS1003;15950;51.112;6.966;2023-03-07T15:36:35;002;001;
26720;PMS1003;15950;51.112;6.966;2023-03-07T15:39:35;002;001;
26720;PMS1003;15950;51.112;6.966;2023-03-07T15:45:36;000;000;
26720;PMS1003;15950;51.112;6.966;2023-03-07T15:51:35;006;004;
26720;PMS1003;15950;51.112;6.966;2023-03-07T15:54:39;006;004;
26720;PMS1003;15950;51.112;6.966;2023-03-07T15:57:46;005;003;
26720;PMS1003;15950;51.112;6.966;2023-03-07T16:00:36;005;004;
26720;PMS1003;15950;51.112;6.966;2023-03-07T16:03:35;004;004;
26720;PMS1003;15950;51.112;6.966;2023-03-07T16:09:35;005;003;
26720;PMS1003;15950;51.112;6.966;2023-03-07T16:12:35;003;002;
26720;PMS1003;15950;51.112;6.966;2023-03-07T16:15:35;005;005;
26720;PMS1003;15950;51.112;6.966;2023-03-07T16:18:35;005;003;
26720;PMS1003;15950;51.112;6.966;2023-03-07T16:21:35;009;006;
26720;PMS1003;15950;51.112;6.966;2023-03-07T16:24:35;010;007;
26720;PMS1003;15950;51.112;6.966;2023-03-07T16:27:35;007;005;
26720;PMS1003;15950;51.112;6.966;2023-03-07T16:30:35;005;003;
26720;PMS1003;15950;51.112;6.966;2023-03-07T16:33:35;007;005;
26720;PMS1003;15950;51.112;6.966;2023-03-07T16:36:35;009;006;
26720;PMS1003;15950;51.112;6.966;2023-03-07T16:39:35;005;003;
26720;PMS1003;15950;51.112;6.966;2023-03-07T16:42:35;006;004;
26720;PMS1003;15950;51.112;6.966;2023-03-07T16:45:35;009;006;
26720;PMS1003;15950;51.112;6.966;2023-03-07T16:48:35;005;003;
26720;PMS1003;15950;51.112;6.966;2023-03-07T16:51:35;008;006;
26720;PMS1003;15950;51.112;6.966;2023-03-07T16:54:35;007;005;
26720;PMS1003;15950;51.112;6.966;2023-03-07T16:57:35;007;005;
26720;PMS1003;15950;51.112;6.966;2023-03-07T17:00:35;009;006;
26720;PMS1003;15950;51.112;6.966;2023-03-07T17:03:35;006;004;
26720;PMS1003;15950;51.112;6.966;2023-03-07T17:06:35;009;006;
26720;PMS1003;15950;51.112;6.966;2023-03-07T17:09:35;007;005;
26720;PMS1003;15950;51.112;6.966;2023-03-07T17:12:35;009;006;
26720;PMS1003;15950;51.112;6.966;2023-03-07T17:15:35;010;008;
26720;PMS1003;15950;51.112;6.966;2023-03-07T17:18:35;011;008;
26720;PMS1003;15950;51.112;6.966;2023-03-07T17:21:35;009;007;
26720;PMS1003;15950;51.112;6.966;2023-03-07T17:24:35;011;009;
26720;PMS1003;15950;51.112;6.966;2023-03-07T17:27:36;011;008;
26720;PMS1003;15950;51.112;6.966;2023-03-07T17:30:35;009;007;
26720;PMS1003;15950;51.112;6.966;2023-03-07T17:33:35;008;006;
26720;PMS1003;15950;51.112;6.966;2023-03-07T17:36:35;011;008;
26720;PMS1003;15950;51.112;6.966;2023-03-07T17:39:35;008;007;
26720;PMS1003;15950;51.112;6.966;2023-03-07T17:42:36;009;007;
26720;PMS1003;15950;51.112;6.966;2023-03-07T17:45:36;012;010;
26720;PMS1003;15950;51.112;6.966;2023-03-07T17:48:35;020;014;
26720;PMS1003;15950;51.112;6.966;2023-03-07T17:51:35;016;011;
26720;PMS1003;15950;51.112;6.966;2023-03-07T17:54:35;011;009;
26720;PMS1003;15950;51.112;6.966;2023-03-07T17:57:35;011;008;
26720;PMS1003;15950;51.112;6.966;2023-03-07T18:00:36;009;007;
26720;PMS1003;15950;51.112;6.966;2023-03-07T18:03:35;009;008;
26720;PMS1003;15950;51.112;6.966;2023-03-07T18:06:35;011;009;
26720;PMS1003;15950;51.112;6.966;2023-03-07T18:09:35;012;009;
26720;PMS1003;15950;51.112;6.966;2023-03-07T18:12:35;008;007;
26720;PMS1003;15950;51.112;6.966;2023-03-07T18:15:35;013;010;
26720;PMS1003;15950;51.112;6.966;2023-03-07T18:18:36;010;007;
26720;PMS1003;15950;51.112;6.966;2023-03-07T18:21:35;019;014;
26720;PMS1003;15950;51.112;6.966;2023-03-07T18:24:35;012;009;
26720;PMS1003;15950;51.112;6.966;2023-03-07T18:27:35;010;007;
26720;PMS1003;15950;51.112;6.966;2023-03-07T18:30:35;010;007;
26720;PMS1003;15950;51.112;6.966;2023-03-07T18:33:35;011;009;
26720;PMS1003;15950;51.112;6.966;2023-03-07T18:36:35;013;010;
26720;PMS1003;15950;51.112;6.966;2023-03-07T18:39:35;014;010;
26720;PMS1003;15950;51.112;6.966;2023-03-07T18:42:35;012;010;
26720;PMS1003;15950;51.112;6.966;2023-03-07T18:45:35;012;008;
26720;PMS1003;15950;51.112;6.966;2023-03-07T18:48:35;009;006;
26720;PMS1003;15950;51.112;6.966;2023-03-07T18:51:35;010;007;
26720;PMS1003;15950;51.112;6.966;2023-03-07T18:54:35;010;007;
26720;PMS1003;15950;51.112;6.966;2023-03-07T18:57:35;014;011;
26720;PMS1003;15950;51.112;6.966;2023-03-07T19:00:35;010;007;
26720;PMS1003;15950;51.112;6.966;2023-03-07T19:03:35;012;008;
26720;PMS1003;15950;51.112;6.966;2023-03-07T19:06:36;013;011;
26720;PMS1003;15950;51.112;6.966;2023-03-07T19:09:35;017;012;
26720;PMS1003;15950;51.112;6.966;2023-03-07T19:12:35;016;012;
26720;PMS1003;15950;51.112;6.966;2023-03-07T19:15:35;014;011;
26720;PMS1003;15950;51.112;6.966;2023-03-07T19:18:35;020;017;
26720;PMS1003;15950;51.112;6.966;2023-03-07T19:21:35;017;012;
26720;PMS1003;15950;51.112;6.966;2023-03-07T19:24:35;010;007;
26720;PMS1003;15950;51.112;6.966;2023-03-07T19:27:35;016;011;
26720;PMS1003;15950;51.112;6.966;2023-03-07T19:30:35;014;010;
26720;PMS1003;15950;51.112;6.966;2023-03-07T19:33:35;014;010;
26720;PMS1003;15950;51.112;6.966;2023-03-07T19:36:35;015;012;
26720;PMS1003;15950;51.112;6.966;2023-03-07T19:39:35;013;010;
26720;PMS1003;15950;51.112;6.966;2023-03-07T19:42:35;018;014;
26720;PMS1003;15950;51.112;6.966;2023-03-07T19:45:38;011;009;
26720;PMS1003;15950;51.112;6.966;2023-03-07T19:48:35;009;006;
26720;PMS1003;15950;51.112;6.966;2023-03-07T19:51:35;017;012;
26720;PMS1003;15950;51.112;6.966;2023-03-07T19:54:35;010;007;
26720;PMS1003;15950;51.112;6.966;2023-03-07T19:57:35;010;007;
26720;PMS1003;15950;51.112;6.966;2023-03-07T20:00:38;008;007;
26720;PMS1003;15950;51.112;6.966;2023-03-07T20:03:35;013;009;
26720;PMS1003;15950;51.112;6.966;2023-03-07T20:06:35;012;008;
26720;PMS1003;15950;51.112;6.966;2023-03-07T20:09:35;010;007;
26720;PMS1003;15950;51.112;6.966;2023-03-07T20:12:35;007;006;
26720;PMS1003;15950;51.112;6.966;2023-03-07T20:15:35;009;006;
26720;PMS1003;15950;51.112;6.966;2023-03-07T20:18:35;010;007;
26720;PMS1003;15950;51.112;6.966;2023-03-07T20:21:35;010;007;
26720;PMS1003;15950;51.112;6.966;2023-03-07T20:24:35;018;013;
26720;PMS1003;15950;51.112;6.966;2023-03-07T20:27:35;018;015;
26720;PMS1003;15950;51.112;6.966;2023-03-07T20:30:35;022;016;
26720;PMS1003;15950;51.112;6.966;2023-03-07T20:33:38;016;012;
26720;PMS1003;15950;51.112;6.966;2023-03-07T20:36:35;018;014;
26720;PMS1003;15950;51.112;6.966;2023-03-07T20:39:38;015;012;
26720;PMS1003;15950;51.112;6.966;2023-03-07T20:42:35;025;018;
26720;PMS1003;15950;51.112;6.966;2023-03-07T20:45:35;040;029;
26720;PMS1003;15950;51.112;6.966;2023-03-07T20:48:35;026;018;
26720;PMS1003;15950;51.112;6.966;2023-03-07T20:51:35;017;012;
26720;PMS1003;15950;51.112;6.966;2023-03-07T20:54:35;011;008;
26720;PMS1003;15950;51.112;6.966;2023-03-07T20:57:35;012;008;
26720;PMS1003;15950;51.112;6.966;2023-03-07T21:00:35;007;005;
26720;PMS1003;15950;51.112;6.966;2023-03-07T21:03:35;009;006;
26720;PMS1003;15950;51.112;6.966;2023-03-07T21:06:36;010;008;
26720;PMS1003;15950;51.112;6.966;2023-03-07T21:09:35;010;007;
26720;PMS1003;15950;51.112;6.966;2023-03-07T21:12:35;009;008;
26720;PMS1003;15950;51.112;6.966;2023-03-07T21:15:35;010;007;
26720;PMS1003;15950;51.112;6.966;2023-03-07T21:18:35;008;006;
26720;PMS1003;15950;51.112;6.966;2023-03-07T21:21:35;006;004;
26720;PMS1003;15950;51.112;6.966;2023-03-07T21:24:35;007;007;
26720;PMS1003;15950;51.112;6.966;2023-03-07T21:27:35;011;008;
26720;PMS1003;15950;51.112;6.966;2023-03-07T21:30:35;005;003;
26720;PMS1003;15950;51.112;6.966;2023-03-07T21:33:35;006;004;
26720;PMS1003;15950;51.112;6.966;2023-03-07T21:36:35;007;005;
26720;PMS1003;15950;51.112;6.966;2023-03-07T21:39:35;009;006;
26720;PMS1003;15950;51.112;6.966;2023-03-07T21:42:35;009;008;
26720;PMS1003;15950;51.112;6.966;2023-03-07T21:45:35;005;003;
26720;PMS1003;15950;51.112;6.966;2023-03-07T21:48:35;005;003;
26720;PMS1003;15950;51.112;6.966;2023-03-07T21:51:35;006;004;
26720;PMS1003;15950;51.112;6.966;2023-03-07T21:54:35;008;007;
26720;PMS1003;15950;51.112;6.966;2023-03-07T21:57:35;005;003;